Time;durP1;ratioP1;P1;durP2;ratioP2;P2;SDS_P1;SDS_P2;PMS_P1;PMS_P2;Temp;Humidity;BMP_temperature;BMP_pressure;BME280_temperature;BME280_humidity;BME280_pressure;Samples;Min_cycle;Max_cycle;Signal;HPM_P1;HPM_P2
2022/04/12 00:00:25;;;;;;;;;;;;;;;17.36;33.10;101325.94;5049360;28;20422;-77
2022/04/12 00:02:51;;;;;;;;;;;;;;;17.32;33.12;101321.28;5049659;28;20284;-76
2022/04/12 00:05:16;;;;;;;;;;;;;;;17.49;33.04;101314.66;5050662;28;19917;-76
2022/04/12 00:07:42;;;;;;;;;;;;;;;17.27;33.27;101308.50;5051358;28;19908;-77
2022/04/12 00:10:08;;;;;;;;;;;;;;;17.56;33.05;101303.59;5050665;28;19920;-77
2022/04/12 00:12:34;;;;;;;;;;;;;;;16.84;33.78;101318.63;5050549;28;19951;-77
2022/04/12 00:14:59;;;;;;;;;;;;;;;16.78;34.14;101308.78;5050350;28;19960;-76
2022/04/12 00:20:09;;;;;;;;;;;;;;;16.74;34.32;101294.91;5050315;28;19978;-76
2022/04/12 00:22:35;;;;;;;;;;;;;;;16.78;33.99;101300.63;5050964;28;19939;-77
2022/04/12 00:25:00;;;;;;;;;;;;;;;16.33;34.93;101304.41;5049536;28;19920;-76
2022/04/12 00:27:28;;;;;;;;;;;;;;;16.26;35.07;101301.06;5050658;28;19916;-76
2022/04/12 00:29:54;;;;;;;;;;;;;;;16.40;34.90;101307.75;5050403;28;20019;-76
2022/04/12 00:32:19;;;;;;;;;;;;;;;16.42;34.94;101307.50;5048991;28;19959;-77
2022/04/12 00:34:45;;;;;;;;;;;;;;;16.13;35.15;101306.84;5054286;28;20003;-77
2022/04/12 00:37:10;;;;;;;;;;;;;;;16.98;33.94;101300.88;5054296;28;19927;-77
2022/04/12 00:39:37;;;;;;;;;;;;;;;15.92;35.76;101304.13;5054209;28;20387;-76
2022/04/12 00:42:02;;;;;;;;;;;;;;;16.64;34.67;101303.75;5053915;28;19928;-77
2022/04/12 00:44:27;;;;;;;;;;;;;;;16.58;34.82;101301.22;5054209;28;19913;-76
2022/04/12 00:46:53;;;;;;;;;;;;;;;16.13;35.66;101295.19;5053724;28;19912;-77
2022/04/12 00:49:18;;;;;;;;;;;;;;;16.00;35.79;101290.94;5051296;28;19940;-77
2022/04/12 00:51:44;;;;;;;;;;;;;;;16.01;35.89;101291.75;5053323;28;19917;-78
2022/04/12 00:54:10;;;;;;;;;;;;;;;15.78;36.22;101279.25;5052245;28;19916;-77
2022/04/12 00:56:36;;;;;;;;;;;;;;;16.19;35.43;101283.34;5052376;28;19917;-77
2022/04/12 00:59:02;;;;;;;;;;;;;;;15.87;35.58;101283.16;5053577;28;19916;-76
2022/04/12 01:01:28;;;;;;;;;;;;;;;15.11;37.63;101272.16;5052486;28;19916;-77
2022/04/12 01:03:53;;;;;;;;;;;;;;;15.75;36.02;101269.72;5053953;28;19919;-76
2022/04/12 01:06:19;;;;;;;;;;;;;;;16.40;34.88;101261.66;5033641;28;19936;-77
2022/04/12 01:08:44;;;;;;;;;;;;;;;15.75;35.88;101268.88;5033925;28;19913;-78
2022/04/12 01:11:10;;;;;;;;;;;;;;;15.56;36.92;101271.06;5033589;28;19933;-76
2022/04/12 01:13:35;;;;;;;;;;;;;;;15.20;37.11;101257.97;5034257;28;20278;-78
2022/04/12 01:16:01;;;;;;;;;;;;;;;15.12;37.34;101252.97;5033463;28;20361;-77
2022/04/12 01:18:26;;;;;;;;;;;;;;;15.57;37.04;101261.03;5033585;28;19917;-76
2022/04/12 01:20:51;;;;;;;;;;;;;;;16.17;35.63;101252.94;5033162;28;19921;-75
2022/04/12 01:23:19;;;;;;;;;;;;;;;15.20;37.18;101251.72;5033510;28;19944;-77
2022/04/12 01:25:45;;;;;;;;;;;;;;;15.03;37.61;101248.19;5033773;28;19909;-78
2022/04/12 01:28:11;;;;;;;;;;;;;;;15.37;37.18;101239.81;5043463;28;19962;-77
2022/04/12 01:30:37;;;;;;;;;;;;;;;14.79;37.80;101233.97;5052870;28;19960;-78
2022/04/12 01:33:03;;;;;;;;;;;;;;;15.44;36.89;101234.28;5052996;28;19917;-77
2022/04/12 01:35:28;;;;;;;;;;;;;;;15.08;37.32;101227.44;5052073;28;19913;-77
2022/04/12 01:37:53;;;;;;;;;;;;;;;15.73;35.94;101238.50;5057786;28;20262;-76
2022/04/12 01:40:19;;;;;;;;;;;;;;;15.31;36.80;101221.06;5058042;28;20010;-76
2022/04/12 01:42:44;;;;;;;;;;;;;;;15.43;36.31;101227.25;5056165;28;20033;-76
2022/04/12 01:45:09;;;;;;;;;;;;;;;16.11;35.10;101227.66;5056461;28;19917;-78
2022/04/12 01:47:35;;;;;;;;;;;;;;;15.40;36.39;101227.69;5056332;28;19996;-77
2022/04/12 01:50:00;;;;;;;;;;;;;;;15.56;35.65;101241.25;5056277;28;19920;-76
2022/04/12 01:52:26;;;;;;;;;;;;;;;15.50;36.37;101253.09;5061483;28;19939;-76
2022/04/12 01:54:51;;;;;;;;;;;;;;;15.76;35.77;101260.50;5058535;28;19962;-77
2022/04/12 01:57:16;;;;;;;;;;;;;;;16.47;34.40;101256.84;5058452;28;19920;-76
2022/04/12 01:59:42;;;;;;;;;;;;;;;16.23;34.50;101258.19;5059126;28;19912;-76
2022/04/12 02:05:10;;;;;;;;;;;;;;;16.30;34.73;101260.69;5060470;28;19974;-76
2022/04/12 02:07:35;;;;;;;;;;;;;;;16.37;34.36;101267.56;5054700;28;19913;-77
2022/04/12 02:10:02;;;;;;;;;;;;;;;15.40;36.03;101266.44;5040962;28;19916;-76
2022/04/12 02:12:27;;;;;;;;;;;;;;;15.93;35.49;101257.78;5043200;28;20307;-77
2022/04/12 02:14:53;;;;;;;;;;;;;;;16.57;34.31;101256.16;5042496;28;19917;-76
2022/04/12 02:17:18;;;;;;;;;;;;;;;15.76;35.47;101252.38;5042089;28;19917;-76
2022/04/12 02:19:43;;;;;;;;;;;;;;;15.22;36.78;101253.13;5041655;28;19915;-76
2022/04/12 02:22:09;;;;;;;;;;;;;;;14.54;38.31;101252.44;5047562;28;19921;-77
2022/04/12 02:24:35;;;;;;;;;;;;;;;14.98;37.49;101251.63;5048325;28;20395;-76
2022/04/12 02:27:00;;;;;;;;;;;;;;;14.46;38.37;101242.00;5048618;28;19917;-76
2022/04/12 02:29:25;;;;;;;;;;;;;;;14.65;38.49;101249.69;5102534;28;19916;-76
2022/04/12 02:32:09;;;;;;;;;;;;;;;14.67;38.36;101255.66;5069116;28;19955;-75
2022/04/12 02:34:35;;;;;;;;;;;;;;;15.13;37.51;101257.31;5071746;28;19912;-76
2022/04/12 02:37:01;;;;;;;;;;;;;;;15.16;38.02;101250.56;5071672;28;19917;-75
2022/04/12 02:39:26;;;;;;;;;;;;;;;14.87;37.83;101242.53;5069538;28;19917;-77
2022/04/12 02:41:52;;;;;;;;;;;;;;;14.14;39.52;101244.28;5071535;28;19920;-77
2022/04/12 02:44:17;;;;;;;;;;;;;;;14.28;39.38;101248.41;5066437;28;19967;-77
2022/04/12 02:46:42;;;;;;;;;;;;;;;14.13;39.79;101239.97;5067063;28;19912;-76
2022/04/12 02:49:08;;;;;;;;;;;;;;;14.72;38.49;101238.72;5069050;28;19923;-76
2022/04/12 02:51:33;;;;;;;;;;;;;;;13.91;40.14;101228.97;5065037;28;19944;-75
2022/04/12 02:53:58;;;;;;;;;;;;;;;13.87;40.27;101226.97;5063693;28;19920;-76
2022/04/12 02:56:23;;;;;;;;;;;;;;;14.37;39.20;101224.53;5060279;28;19966;-75
2022/04/12 02:58:49;;;;;;;;;;;;;;;15.12;37.36;101220.47;5065353;28;20044;-76
2022/04/12 03:01:14;;;;;;;;;;;;;;;15.17;37.68;101219.75;5066367;28;19930;-76
2022/04/12 03:03:39;;;;;;;;;;;;;;;14.67;38.45;101225.91;5065184;28;19917;-75
2022/04/12 03:06:04;;;;;;;;;;;;;;;14.23;39.67;101221.22;5063872;28;19917;-76
2022/04/12 03:08:30;;;;;;;;;;;;;;;14.22;39.59;101219.59;5063433;28;20261;-76
2022/04/12 03:10:55;;;;;;;;;;;;;;;13.79;40.44;101217.34;5064164;28;19920;-77
2022/04/12 03:13:20;;;;;;;;;;;;;;;13.86;40.20;101215.31;5067339;28;19940;-77
2022/04/12 03:19:07;;;;;;;;;;;;;;;13.89;40.73;101205.94;5066072;28;19920;-76
2022/04/12 03:21:32;;;;;;;;;;;;;;;13.95;40.06;101211.19;5064682;28;20391;-76
2022/04/12 03:23:57;;;;;;;;;;;;;;;14.02;40.24;101221.88;5057919;28;19916;-76
2022/04/12 03:26:23;;;;;;;;;;;;;;;14.54;39.02;101209.16;5060413;28;19917;-75
2022/04/12 03:28:48;;;;;;;;;;;;;;;13.98;39.89;101212.59;5062067;28;19940;-76
2022/04/12 03:34:18;;;;;;;;;;;;;;;13.93;40.29;101201.69;5061539;28;19920;-76
2022/04/12 03:36:43;;;;;;;;;;;;;;;14.22;39.82;101208.78;5063381;28;19917;-76
2022/04/12 03:39:11;;;;;;;;;;;;;;;14.26;39.46;101204.53;5064876;28;19934;-76
2022/04/12 03:41:36;;;;;;;;;;;;;;;14.64;39.00;101198.53;5063048;28;19962;-76
2022/04/12 03:44:03;;;;;;;;;;;;;;;14.31;39.23;101196.53;5063438;28;19912;-76
2022/04/12 03:49:32;;;;;;;;;;;;;;;14.23;39.85;101204.19;5063572;28;20277;-77
2022/04/12 03:51:58;;;;;;;;;;;;;;;13.89;40.17;101208.63;5064393;28;19916;-76
2022/04/12 03:54:23;;;;;;;;;;;;;;;13.85;40.74;101205.59;5063420;28;19924;-77
2022/04/12 03:56:48;;;;;;;;;;;;;;;13.69;40.65;101211.72;5063871;28;19932;-76
2022/04/12 03:59:13;;;;;;;;;;;;;;;14.03;39.91;101201.91;5064823;28;20416;-77
2022/04/12 04:01:57;;;;;;;;;;;;;;;13.72;40.78;101197.72;5060477;28;19988;-76
2022/04/12 04:04:22;;;;;;;;;;;;;;;13.85;40.12;101196.66;5055288;28;20410;-75
2022/04/12 04:06:48;;;;;;;;;;;;;;;13.76;40.71;101196.19;5053882;28;19934;-76
2022/04/12 04:09:13;;;;;;;;;;;;;;;14.11;39.98;101199.63;5053977;28;20398;-77
2022/04/12 04:11:38;;;;;;;;;;;;;;;13.76;40.11;101198.06;5056674;28;19978;-75
2022/04/12 04:14:04;;;;;;;;;;;;;;;13.83;40.41;101196.06;5056966;28;19924;-76
2022/04/12 04:16:48;;;;;;;;;;;;;;;13.43;41.24;101189.75;5058675;28;19905;-75
2022/04/12 04:19:13;;;;;;;;;;;;;;;13.82;40.85;101184.44;5058881;28;19916;-75
2022/04/12 04:21:38;;;;;;;;;;;;;;;14.31;39.27;101185.72;5059226;28;19967;-75
2022/04/12 04:24:04;;;;;;;;;;;;;;;13.92;40.13;101184.66;5058978;28;20387;-75
2022/04/12 04:26:29;;;;;;;;;;;;;;;14.13;39.85;101187.78;5056986;28;19921;-75
2022/04/12 04:28:55;;;;;;;;;;;;;;;14.15;39.67;101182.94;5057698;28;20398;-75
2022/04/12 04:31:20;;;;;;;;;;;;;;;14.06;39.94;101186.03;5057667;28;19913;-74
2022/04/12 04:33:46;;;;;;;;;;;;;;;14.49;39.02;101185.53;5057819;28;19916;-74
2022/04/12 04:36:11;;;;;;;;;;;;;;;14.30;39.50;101176.00;5057779;28;20007;-76
2022/04/12 04:38:36;;;;;;;;;;;;;;;13.76;40.55;101181.84;5057774;28;19916;-75
2022/04/12 04:41:02;;;;;;;;;;;;;;;13.43;40.50;101170.84;5058888;28;19923;-75
2022/04/12 04:43:27;;;;;;;;;;;;;;;13.25;41.43;101174.50;5059604;28;19911;-74
2022/04/12 04:45:53;;;;;;;;;;;;;;;13.55;40.89;101179.78;5059464;28;20377;-75
2022/04/12 04:48:18;;;;;;;;;;;;;;;13.45;40.92;101184.94;5057965;28;19917;-76
2022/04/12 04:50:43;;;;;;;;;;;;;;;14.30;39.26;101189.50;5059992;28;20534;-76
2022/04/12 04:53:11;;;;;;;;;;;;;;;14.36;39.19;101185.84;5062417;28;19913;-75
2022/04/12 04:55:37;;;;;;;;;;;;;;;13.48;40.60;101182.63;5058111;28;19913;-76
2022/04/12 04:58:03;;;;;;;;;;;;;;;14.31;39.00;101191.13;5055858;28;19927;-76
2022/04/12 05:00:34;;;;;;;;;;;;;;;14.09;39.24;101190.16;5055785;28;19952;-76
2022/04/12 05:03:00;;;;;;;;;;;;;;;13.71;40.21;101190.69;5054902;28;20414;-76
2022/04/12 05:05:26;;;;;;;;;;;;;;;14.16;39.79;101182.72;5057462;28;19917;-75
2022/04/12 05:07:53;;;;;;;;;;;;;;;14.14;39.12;101190.22;5058703;28;19915;-77
2022/04/12 05:10:25;;;;;;;;;;;;;;;14.13;39.74;101190.47;5060154;28;20000;-76
2022/04/12 05:12:50;;;;;;;;;;;;;;;14.00;40.30;101189.69;5087474;28;19948;-75
2022/04/12 05:15:16;;;;;;;;;;;;;;;14.51;38.96;101182.59;5054597;28;19959;-77
2022/04/12 05:17:47;;;;;;;;;;;;;;;14.06;39.82;101187.91;5055557;28;19916;-76
2022/04/12 05:20:12;;;;;;;;;;;;;;;14.18;39.23;101198.69;5053844;28;19912;-77
2022/04/12 05:22:37;;;;;;;;;;;;;;;14.75;38.38;101194.94;5055406;28;19986;-77
2022/04/12 05:25:03;;;;;;;;;;;;;;;14.68;38.79;101183.47;5056093;28;19916;-76
2022/04/12 05:27:31;;;;;;;;;;;;;;;14.39;39.40;101174.53;5054590;28;20289;-76
2022/04/12 05:29:57;;;;;;;;;;;;;;;14.26;39.37;101169.41;5051681;28;19912;-76
2022/04/12 05:32:23;;;;;;;;;;;;;;;14.70;38.94;101167.81;5054344;28;19924;-76
2022/04/12 05:34:48;;;;;;;;;;;;;;;14.17;39.51;101175.44;5054843;28;19909;-75
2022/04/12 05:37:13;;;;;;;;;;;;;;;14.31;39.62;101169.50;5053814;28;19917;-76
2022/04/12 05:39:39;;;;;;;;;;;;;;;14.33;39.53;101183.59;5053209;28;19917;-75
2022/04/12 05:42:04;;;;;;;;;;;;;;;14.61;38.56;101171.94;5052156;28;20365;-74
2022/04/12 05:44:33;;;;;;;;;;;;;;;14.91;38.55;101180.59;5052574;28;20405;-74
2022/04/12 05:46:58;;;;;;;;;;;;;;;15.16;37.70;101175.59;5051260;28;19920;-74
2022/04/12 05:49:24;;;;;;;;;;;;;;;15.01;38.17;101186.19;5053494;28;19913;-74
2022/04/12 05:51:49;;;;;;;;;;;;;;;15.06;38.18;101188.97;5052805;28;19916;-74
2022/04/12 05:54:14;;;;;;;;;;;;;;;15.17;37.58;101198.09;5050305;28;19924;-74
2022/04/12 05:56:39;;;;;;;;;;;;;;;15.23;37.75;101199.81;5051282;28;19930;-74
2022/04/12 05:59:06;;;;;;;;;;;;;;;15.28;37.87;101206.13;5052143;28;20040;-75
2022/04/12 06:01:31;;;;;;;;;;;;;;;15.15;38.08;101211.88;5052247;28;20007;-73
2022/04/12 06:03:56;;;;;;;;;;;;;;;14.98;38.62;101204.81;5053662;28;19959;-74
2022/04/12 06:06:21;;;;;;;;;;;;;;;15.28;38.12;101203.41;5052740;28;19917;-73
2022/04/12 06:08:47;;;;;;;;;;;;;;;15.49;38.09;101210.78;5052366;28;19917;-73
2022/04/12 06:11:12;;;;;;;;;;;;;;;15.48;37.43;101208.34;5052800;28;19917;-74
2022/04/12 06:13:37;;;;;;;;;;;;;;;15.10;38.25;101192.81;5050792;28;19909;-75
2022/04/12 06:16:02;;;;;;;;;;;;;;;15.28;38.50;101199.88;5049620;28;19917;-74
2022/04/12 06:18:28;;;;;;;;;;;;;;;14.70;39.40;101192.16;5052840;28;19912;-75
2022/04/12 06:20:54;;;;;;;;;;;;;;;14.91;38.85;101188.72;5052199;28;21092;-74
2022/04/12 06:23:19;;;;;;;;;;;;;;;14.78;39.48;101195.25;5049500;28;19917;-75
2022/04/12 06:25:44;;;;;;;;;;;;;;;14.75;39.18;101195.75;5052859;28;19924;-74
2022/04/12 06:28:09;;;;;;;;;;;;;;;14.82;39.00;101195.59;5053891;28;20012;-75
2022/04/12 06:30:35;;;;;;;;;;;;;;;14.73;39.36;101192.47;5051093;28;19991;-74
2022/04/12 06:33:00;;;;;;;;;;;;;;;15.41;38.10;101194.13;5052253;28;19924;-74
2022/04/12 06:35:25;;;;;;;;;;;;;;;16.07;37.03;101185.84;5052435;28;19916;-75
2022/04/12 06:37:56;;;;;;;;;;;;;;;15.71;37.72;101191.88;5052613;28;20109;-73
2022/04/12 06:40:21;;;;;;;;;;;;;;;14.93;39.14;101202.84;5053315;28;19908;-74
2022/04/12 06:42:47;;;;;;;;;;;;;;;15.74;37.64;101213.06;5045785;28;20304;-75
2022/04/12 06:45:12;;;;;;;;;;;;;;;16.16;37.18;101206.00;5052439;28;20288;-73
2022/04/12 06:47:38;;;;;;;;;;;;;;;16.73;35.79;101205.59;5053078;28;19920;-74
2022/04/12 06:50:04;;;;;;;;;;;;;;;16.78;36.12;101217.31;5050439;28;19915;-75
2022/04/12 06:52:30;;;;;;;;;;;;;;;16.67;36.33;101210.13;5053487;28;19908;-75
2022/04/12 06:54:55;;;;;;;;;;;;;;;16.80;36.20;101211.63;5052824;28;19912;-73
2022/04/12 06:57:20;;;;;;;;;;;;;;;16.31;36.84;101203.47;5052615;28;19970;-75
2022/04/12 06:59:46;;;;;;;;;;;;;;;16.18;36.53;101211.19;5052307;28;19917;-74
2022/04/12 07:02:11;;;;;;;;;;;;;;;15.99;37.60;101220.72;5052801;28;19920;-72
2022/04/12 07:04:36;;;;;;;;;;;;;;;15.65;38.13;101225.38;5052973;28;19916;-73
2022/04/12 07:07:02;;;;;;;;;;;;;;;16.54;36.66;101207.84;5052813;28;19924;-75
2022/04/12 07:09:28;;;;;;;;;;;;;;;16.26;37.41;101210.75;5047828;28;20042;-75
2022/04/12 07:11:54;;;;;;;;;;;;;;;16.14;37.54;101212.75;5053540;28;20419;-74
2022/04/12 07:14:19;;;;;;;;;;;;;;;16.49;37.26;101211.31;5052595;28;19916;-74
2022/04/12 07:16:45;;;;;;;;;;;;;;;16.08;37.89;101209.16;5048680;28;19913;-73
2022/04/12 07:19:11;;;;;;;;;;;;;;;15.98;38.29;101202.81;5069334;28;20300;-76
2022/04/12 07:21:36;;;;;;;;;;;;;;;15.82;38.27;101188.25;5050157;28;19920;-74
2022/04/12 07:24:05;;;;;;;;;;;;;;;16.20;38.14;101182.75;5049042;28;20242;-74
2022/04/12 07:26:31;;;;;;;;;;;;;;;16.61;37.52;101173.16;5046580;28;20021;-74
2022/04/12 07:28:56;;;;;;;;;;;;;;;16.54;37.48;101172.56;5052095;28;19959;-74
2022/04/12 07:31:21;;;;;;;;;;;;;;;17.38;36.11;101170.81;5055225;28;19944;-76
2022/04/12 07:33:46;;;;;;;;;;;;;;;16.87;37.38;101157.94;5053207;28;19928;-75
2022/04/12 07:36:12;;;;;;;;;;;;;;;16.95;37.28;101160.19;5053144;28;19991;-73
2022/04/12 07:38:37;;;;;;;;;;;;;;;16.89;37.61;101158.50;5053068;28;19921;-74
2022/04/12 07:41:04;;;;;;;;;;;;;;;17.38;36.02;101159.94;5052750;28;19979;-76
2022/04/12 07:43:29;;;;;;;;;;;;;;;17.09;37.45;101162.22;5054250;28;19944;-75
2022/04/12 07:45:54;;;;;;;;;;;;;;;17.54;36.77;101159.00;5058034;28;19944;-73
2022/04/12 07:48:20;;;;;;;;;;;;;;;17.00;37.35;101152.88;5057317;28;19916;-73
2022/04/12 07:50:45;;;;;;;;;;;;;;;17.21;37.07;101146.53;5055604;28;19916;-73
2022/04/12 07:53:10;;;;;;;;;;;;;;;17.40;37.01;101144.22;5057985;28;19917;-75
2022/04/12 07:55:35;;;;;;;;;;;;;;;18.02;35.92;101150.53;5055739;28;19951;-74
2022/04/12 07:58:02;;;;;;;;;;;;;;;18.24;35.85;101148.41;5057924;28;19948;-74
2022/04/12 08:00:27;;;;;;;;;;;;;;;18.45;35.37;101135.72;5057720;28;19951;-75
2022/04/12 08:02:53;;;;;;;;;;;;;;;17.80;35.97;101144.47;5055502;28;19921;-74
2022/04/12 08:05:19;;;;;;;;;;;;;;;18.26;35.55;101142.69;5056278;28;20490;-75
2022/04/12 08:07:47;;;;;;;;;;;;;;;18.33;35.51;101137.84;5057460;28;19913;-73
2022/04/12 08:10:16;;;;;;;;;;;;;;;18.79;34.63;101139.53;5056547;28;20007;-74
2022/04/12 08:12:42;;;;;;;;;;;;;;;19.07;33.92;101130.81;5057867;28;19932;-74
2022/04/12 08:15:07;;;;;;;;;;;;;;;18.90;33.93;101132.19;5056461;28;19921;-75
2022/04/12 08:17:33;;;;;;;;;;;;;;;19.29;34.33;101125.06;5058199;28;20281;-77
2022/04/12 08:20:16;;;;;;;;;;;;;;;18.55;34.45;101116.69;5056899;28;19916;-74
2022/04/12 08:22:42;;;;;;;;;;;;;;;19.18;33.59;101121.53;5055827;28;19916;-73
2022/04/12 08:25:08;;;;;;;;;;;;;;;19.86;33.20;101111.00;5056300;28;19958;-72
2022/04/12 08:27:33;;;;;;;;;;;;;;;19.45;34.11;101118.53;5055757;28;19971;-74
2022/04/12 08:29:59;;;;;;;;;;;;;;;19.72;33.71;101118.97;5056367;28;19917;-72
2022/04/12 08:32:24;;;;;;;;;;;;;;;20.14;33.08;101115.78;5056123;28;19955;-72
2022/04/12 08:34:50;;;;;;;;;;;;;;;19.98;32.39;101116.94;5055228;28;19915;-72
2022/04/12 08:37:15;;;;;;;;;;;;;;;20.53;32.22;101113.91;5055559;28;19931;-73
2022/04/12 08:39:41;;;;;;;;;;;;;;;20.16;32.45;101110.84;5055207;28;19916;-75
2022/04/12 08:42:06;;;;;;;;;;;;;;;20.29;31.78;101117.63;5055321;28;19942;-74
2022/04/12 08:44:32;;;;;;;;;;;;;;;20.27;32.33;101109.72;5055728;28;19917;-74
2022/04/12 08:47:02;;;;;;;;;;;;;;;21.34;30.17;101116.78;5055504;28;20435;-72
2022/04/12 08:49:28;;;;;;;;;;;;;;;20.87;30.99;101114.72;5056616;28;19913;-73
2022/04/12 08:51:53;;;;;;;;;;;;;;;21.03;30.40;101118.16;5056116;28;19928;-75
2022/04/12 08:54:19;;;;;;;;;;;;;;;20.88;30.09;101121.00;5055736;28;20030;-74
2022/04/12 08:56:46;;;;;;;;;;;;;;;21.05;30.01;101121.41;5054165;28;19932;-74
2022/04/12 08:59:11;;;;;;;;;;;;;;;21.02;30.13;101124.72;5054784;28;20379;-74
2022/04/12 09:01:37;;;;;;;;;;;;;;;20.98;29.85;101129.13;5054900;28;19921;-73
2022/04/12 09:04:02;;;;;;;;;;;;;;;21.27;30.00;101134.59;5054461;28;19917;-74
2022/04/12 09:06:28;;;;;;;;;;;;;;;21.29;29.65;101138.69;5055316;28;20015;-75
2022/04/12 09:08:53;;;;;;;;;;;;;;;21.01;30.48;101125.84;5055197;28;20261;-73
2022/04/12 09:11:18;;;;;;;;;;;;;;;21.56;30.02;101129.94;5054751;28;19931;-75
2022/04/12 09:14:00;;;;;;;;;;;;;;;21.06;30.76;101124.97;5054285;28;20452;-74
2022/04/12 09:16:25;;;;;;;;;;;;;;;21.86;29.86;101109.63;5051690;28;20423;-75
2022/04/12 09:18:50;;;;;;;;;;;;;;;21.66;30.07;101114.19;5055453;28;19916;-74
2022/04/12 09:21:17;;;;;;;;;;;;;;;21.35;30.57;101107.44;5052849;28;19920;-74
2022/04/12 09:23:54;;;;;;;;;;;;;;;22.95;28.56;101100.84;5055129;28;19971;-75
2022/04/12 09:26:24;;;;;;;;;;;;;;;21.82;29.56;101112.94;5053628;28;19916;-75
2022/04/12 09:28:50;;;;;;;;;;;;;;;22.42;29.15;101096.78;5052660;28;20295;-73
2022/04/12 09:31:16;;;;;;;;;;;;;;;22.30;29.21;101094.50;5054184;28;19924;-73
2022/04/12 09:33:43;;;;;;;;;;;;;;;22.39;29.80;101109.13;5054311;28;19913;-74
2022/04/12 09:36:09;;;;;;;;;;;;;;;23.01;28.35;101105.13;5054023;28;19916;-73
2022/04/12 09:38:36;;;;;;;;;;;;;;;22.66;28.48;101103.78;5055128;28;19982;-73
2022/04/12 09:41:14;;;;;;;;;;;;;;;22.74;28.94;101109.72;5054002;28;19932;-74
2022/04/12 09:43:52;;;;;;;;;;;;;;;23.10;27.94;101110.72;5054821;28;19999;-73
2022/04/12 09:46:18;;;;;;;;;;;;;;;22.84;28.46;101104.06;5054137;28;20026;-73
2022/04/12 09:48:47;;;;;;;;;;;;;;;22.30;29.49;101093.66;5054249;28;19988;-73
2022/04/12 09:51:13;;;;;;;;;;;;;;;23.20;28.75;101086.69;5054601;28;19920;-74
2022/04/12 09:53:39;;;;;;;;;;;;;;;21.86;30.00;101077.59;5053756;28;19923;-75
2022/04/12 09:56:14;;;;;;;;;;;;;;;22.72;28.87;101079.88;5053820;28;19975;-74
2022/04/12 09:58:40;;;;;;;;;;;;;;;22.37;29.49;101080.41;5054533;28;19912;-74
2022/04/12 10:01:06;;;;;;;;;;;;;;;22.36;29.12;101076.06;5053782;28;19921;-75
2022/04/12 10:03:32;;;;;;;;;;;;;;;23.03;29.05;101066.44;5054181;28;19921;-76
2022/04/12 10:05:57;;;;;;;;;;;;;;;22.51;29.50;101054.72;5053419;28;19921;-73
2022/04/12 10:08:24;;;;;;;;;;;;;;;22.56;29.68;101053.81;5053492;28;19986;-73
2022/04/12 10:10:49;;;;;;;;;;;;;;;23.49;28.83;101059.78;5044039;28;19919;-74
2022/04/12 10:13:15;;;;;;;;;;;;;;;23.05;28.42;101065.03;5052762;28;20003;-73
2022/04/12 10:15:41;;;;;;;;;;;;;;;23.18;28.16;101066.16;5051771;28;20347;-74
2022/04/12 10:18:06;;;;;;;;;;;;;;;23.52;27.59;101058.38;5052915;28;19920;-73
2022/04/12 10:20:31;;;;;;;;;;;;;;;23.51;28.61;101056.75;5053552;28;19923;-74
2022/04/12 10:22:58;;;;;;;;;;;;;;;23.45;28.54;101049.72;5054326;28;20438;-73
2022/04/12 10:25:24;;;;;;;;;;;;;;;23.96;28.32;101060.47;5054005;28;19938;-75
2022/04/12 10:27:50;;;;;;;;;;;;;;;23.98;27.75;101070.00;5053529;28;20383;-74
2022/04/12 10:30:15;;;;;;;;;;;;;;;24.37;28.02;101063.91;5054477;28;19924;-74
2022/04/12 10:33:13;;;;;;;;;;;;;;;24.48;27.72;101059.78;5052743;28;19921;-74
2022/04/12 10:38:41;;;;;;;;;;;;;;;24.83;27.59;101058.91;4967593;28;19925;-73
2022/04/12 10:41:14;;;;;;;;;;;;;;;25.06;26.33;101060.50;4950574;28;19925;-75
2022/04/12 10:43:40;;;;;;;;;;;;;;;25.30;26.36;101062.88;4956585;28;19917;-75
2022/04/12 10:46:06;;;;;;;;;;;;;;;25.49;26.85;101060.72;4961594;28;19914;-74
2022/04/12 10:48:33;;;;;;;;;;;;;;;25.28;26.83;101056.88;4961139;28;19965;-75
2022/04/12 10:51:00;;;;;;;;;;;;;;;24.36;27.90;101054.03;4956941;28;20461;-75
2022/04/12 10:53:37;;;;;;;;;;;;;;;25.40;26.99;101053.53;4958504;28;19990;-75
2022/04/12 10:56:04;;;;;;;;;;;;;;;24.95;26.88;101039.91;4963503;28;19949;-74
2022/04/12 10:58:30;;;;;;;;;;;;;;;24.40;28.09;101046.78;4953561;28;19944;-77
2022/04/12 11:00:55;;;;;;;;;;;;;;;24.97;27.85;101043.16;4964629;28;19976;-74
2022/04/12 11:03:46;;;;;;;;;;;;;;;25.25;26.65;101046.50;4958834;28;19918;-73
2022/04/12 11:06:30;;;;;;;;;;;;;;;26.07;26.08;101055.66;4956064;28;20005;-74
2022/04/12 11:09:08;;;;;;;;;;;;;;;26.28;25.79;101050.31;4963538;28;19918;-75
2022/04/12 11:11:38;;;;;;;;;;;;;;;25.30;26.71;101042.81;5019900;28;19919;-75
2022/04/12 11:14:36;;;;;;;;;;;;;;;26.35;25.81;101039.63;5053244;28;20238;-76
2022/04/12 11:17:08;;;;;;;;;;;;;;;25.98;25.88;101051.25;5010952;28;21087;-73
2022/04/12 11:20:01;;;;;;;;;;;;;;;26.24;25.52;101041.06;5013390;28;20048;-75
2022/04/12 11:22:40;;;;;;;;;;;;;;;25.94;26.48;101036.50;5011321;28;19921;-75
2022/04/12 11:25:12;;;;;;;;;;;;;;;24.84;26.73;101033.06;5012403;28;20032;-74
2022/04/12 11:27:38;;;;;;;;;;;;;;;25.09;26.70;101024.13;5009990;28;20053;-74
2022/04/12 11:30:03;;;;;;;;;;;;;;;26.31;26.13;101021.28;5010932;28;20303;-75
2022/04/12 11:32:31;;;;;;;;;;;;;;;26.37;26.04;101022.75;5002578;28;19928;-74
2022/04/12 11:34:57;;;;;;;;;;;;;;;26.38;25.59;101018.88;4998387;28;19913;-75
2022/04/12 11:37:22;;;;;;;;;;;;;;;26.52;25.75;101005.69;4983283;28;19919;-75
2022/04/12 11:39:47;;;;;;;;;;;;;;;26.11;25.41;101017.25;5000234;28;20292;-77
2022/04/12 11:42:13;;;;;;;;;;;;;;;26.20;26.55;101015.28;5004665;28;20468;-76
2022/04/12 11:44:39;;;;;;;;;;;;;;;26.70;24.93;101021.91;5000211;28;19918;-75
2022/04/12 11:47:08;;;;;;;;;;;;;;;27.67;24.02;101014.53;4999010;28;19957;-75
2022/04/12 11:49:43;;;;;;;;;;;;;;;27.48;24.22;101009.44;4998494;28;20354;-76
2022/04/12 11:52:12;;;;;;;;;;;;;;;26.86;24.89;101020.25;4998129;28;19913;-76
2022/04/12 11:54:38;;;;;;;;;;;;;;;26.95;24.61;101020.19;5048464;28;19956;-76
2022/04/12 11:57:03;;;;;;;;;;;;;;;26.50;25.26;101021.75;5051037;28;19913;-76
2022/04/12 11:59:30;;;;;;;;;;;;;;;26.88;24.67;101023.50;5050667;28;20383;-78
2022/04/12 12:01:59;;;;;;;;;;;;;;;26.94;24.66;101004.81;5050656;28;19963;-76
2022/04/12 12:04:29;;;;;;;;;;;;;;;27.65;24.04;101016.81;5051180;28;19905;-76
2022/04/12 12:06:54;;;;;;;;;;;;;;;27.34;24.46;101021.88;5050626;28;19917;-75
2022/04/12 12:09:20;;;;;;;;;;;;;;;27.26;23.99;101022.69;5050422;28;19921;-77
2022/04/12 12:11:46;;;;;;;;;;;;;;;26.39;25.20;101012.22;5050651;28;20392;-77
2022/04/12 12:14:11;;;;;;;;;;;;;;;26.84;24.80;101010.69;5050695;28;19944;-77
2022/04/12 12:16:36;;;;;;;;;;;;;;;27.19;24.44;101008.59;5051034;28;19917;-76
2022/04/12 12:19:02;;;;;;;;;;;;;;;27.48;24.41;100995.63;5051390;28;19917;-76
2022/04/12 12:21:31;;;;;;;;;;;;;;;27.21;24.52;101000.78;5051193;28;19924;-77
2022/04/12 12:23:56;;;;;;;;;;;;;;;27.56;24.80;100991.19;5052356;28;19916;-76
2022/04/12 12:26:28;;;;;;;;;;;;;;;27.18;24.75;100976.63;5051805;28;19919;-75
2022/04/12 12:28:56;;;;;;;;;;;;;;;27.29;24.68;100969.56;5051812;28;19916;-75
2022/04/12 12:31:21;;;;;;;;;;;;;;;26.52;25.05;100959.66;5055646;28;19955;-75
2022/04/12 12:33:47;;;;;;;;;;;;;;;26.61;25.25;100963.19;5054287;28;19956;-76
2022/04/12 12:36:16;;;;;;;;;;;;;;;27.00;25.05;100983.34;5053895;28;19916;-75
2022/04/12 12:38:42;;;;;;;;;;;;;;;27.29;24.75;100984.19;5053534;28;20310;-75
2022/04/12 12:41:08;;;;;;;;;;;;;;;27.99;24.45;100977.88;5054184;28;20321;-77
2022/04/12 12:43:34;;;;;;;;;;;;;;;27.93;23.92;100983.94;5054843;28;19966;-77
2022/04/12 12:46:04;;;;;;;;;;;;;;;28.24;23.16;100970.53;5053554;28;19978;-77
2022/04/12 12:48:30;;;;;;;;;;;;;;;27.62;23.91;100978.81;5050704;28;19925;-77
2022/04/12 12:50:55;;;;;;;;;;;;;;;28.29;24.31;100967.53;5052745;28;20264;-76